createdAt,value
2022-11-08T00:02:21.453Z,100.00
2022-11-08T00:04:48.057Z,100.00
2022-11-08T00:07:33.002Z,100.00
2022-11-08T00:10:18.003Z,100.00
2022-11-08T00:13:03.183Z,100.00
2022-11-08T00:15:33.394Z,100.00
2022-11-08T00:17:59.952Z,100.00
2022-11-08T00:20:26.464Z,100.00
2022-11-08T00:22:53.001Z,100.00
2022-11-08T00:25:19.517Z,100.00
2022-11-08T00:27:46.036Z,100.00
2022-11-08T00:30:12.722Z,100.00
2022-11-08T00:32:39.623Z,100.00
2022-11-08T00:35:06.734Z,100.00
2022-11-08T00:37:33.266Z,100.00
2022-11-08T00:39:59.779Z,100.00
2022-11-08T00:42:26.345Z,100.00
2022-11-08T00:44:52.889Z,100.00
2022-11-08T00:47:19.378Z,100.00
2022-11-08T00:49:45.908Z,100.00
2022-11-08T00:52:12.397Z,100.00
2022-11-08T00:54:38.922Z,100.00
2022-11-08T00:57:05.473Z,100.00
2022-11-08T00:59:32.062Z,100.00
2022-11-08T01:01:58.634Z,100.00
2022-11-08T01:04:25.386Z,100.00
2022-11-08T01:06:51.886Z,100.00
2022-11-08T01:09:18.416Z,100.00
2022-11-08T01:11:46.703Z,100.00
2022-11-08T01:14:14.672Z,100.00
2022-11-08T01:16:41.945Z,100.00
2022-11-08T01:19:08.556Z,100.00
2022-11-08T01:21:35.425Z,100.00
2022-11-08T01:24:01.990Z,100.00
2022-11-08T01:26:29.715Z,100.00
2022-11-08T01:28:57.839Z,100.00
2022-11-08T01:31:30.686Z,100.00
2022-11-08T01:33:58.619Z,100.00
2022-11-08T01:36:26.788Z,100.00
2022-11-08T01:38:54.207Z,100.00
2022-11-08T01:41:23.588Z,100.00
2022-11-08T01:44:00.090Z,100.00
2022-11-08T01:46:43.683Z,100.00
2022-11-08T01:49:54.630Z,100.00
2022-11-08T01:52:29.198Z,100.00
2022-11-08T01:55:08.613Z,100.00
2022-11-08T01:57:49.516Z,100.00
2022-11-08T02:00:17.640Z,100.00
2022-11-08T02:02:49.858Z,100.00
2022-11-08T02:05:27.618Z,100.00
2022-11-08T02:08:12.579Z,100.00
2022-11-08T02:10:42.447Z,100.00
2022-11-08T02:13:14.908Z,100.00
2022-11-08T02:15:42.880Z,100.00
2022-11-08T02:18:10.481Z,100.00
2022-11-08T02:20:37.316Z,100.00
2022-11-08T02:23:14.425Z,100.00
2022-11-08T02:25:40.976Z,100.00
2022-11-08T02:28:07.621Z,100.00
2022-11-08T02:30:35.401Z,100.00
2022-11-08T02:33:18.724Z,100.00
2022-11-08T02:35:49.942Z,100.00
2022-11-08T02:38:17.467Z,100.00
2022-11-08T02:40:52.064Z,100.00
2022-11-08T02:43:18.908Z,100.00
2022-11-08T02:45:45.765Z,100.00
2022-11-08T02:48:13.042Z,100.00
2022-11-08T02:50:39.969Z,100.00
2022-11-08T02:53:08.505Z,100.00
2022-11-08T02:55:35.476Z,100.00
2022-11-08T02:58:02.261Z,100.00
2022-11-08T03:00:29.826Z,100.00
2022-11-08T03:02:57.679Z,100.00
2022-11-08T03:05:25.958Z,100.00
2022-11-08T03:07:53.689Z,100.00
2022-11-08T03:10:21.489Z,100.00
2022-11-08T03:12:54.518Z,100.00
2022-11-08T03:15:21.016Z,100.00
2022-11-08T03:17:47.492Z,100.00
2022-11-08T03:20:14.002Z,100.00
2022-11-08T03:22:40.507Z,100.00
2022-11-08T03:25:07.614Z,100.00
2022-11-08T03:27:34.084Z,100.00
2022-11-08T03:30:00.617Z,100.00
2022-11-08T03:32:27.116Z,100.00
2022-11-08T03:34:53.659Z,100.00
2022-11-08T03:37:20.214Z,100.00
2022-11-08T03:39:46.708Z,100.00
2022-11-08T03:42:13.223Z,100.00
2022-11-08T03:44:39.732Z,100.00
2022-11-08T03:47:06.230Z,100.00
2022-11-08T03:49:32.740Z,100.00
2022-11-08T03:51:59.198Z,100.00
2022-11-08T03:54:25.719Z,100.00
2022-11-08T03:56:52.219Z,100.00
2022-11-08T03:59:18.706Z,100.00
2022-11-08T04:01:45.291Z,100.00
2022-11-08T04:04:11.917Z,100.00
2022-11-08T04:06:39.434Z,100.00
2022-11-08T04:09:06.350Z,100.00
2022-11-08T04:11:51.459Z,100.00
2022-11-08T04:14:36.419Z,100.00
2022-11-08T04:17:02.992Z,100.00
2022-11-08T04:19:47.828Z,100.00
2022-11-08T04:22:14.398Z,100.00
2022-11-08T04:24:40.961Z,100.00
2022-11-08T04:27:07.502Z,100.00
2022-11-08T04:29:34.074Z,100.00
2022-11-08T04:32:00.553Z,100.00
2022-11-08T04:34:27.138Z,100.00
2022-11-08T04:36:54.354Z,100.00
2022-11-08T04:39:20.915Z,100.00
2022-11-08T04:41:47.412Z,100.00
2022-11-08T04:44:15.643Z,100.00
2022-11-08T04:46:42.164Z,100.00
2022-11-08T04:49:08.962Z,100.00
2022-11-08T04:51:35.816Z,100.00
2022-11-08T04:54:05.055Z,100.00
2022-11-08T04:56:32.248Z,100.00
2022-11-08T04:59:00.135Z,100.00
2022-11-08T05:01:31.097Z,100.00
2022-11-08T05:03:58.320Z,100.00
2022-11-08T05:06:28.051Z,100.00
2022-11-08T05:08:56.155Z,100.00
2022-11-08T05:11:25.141Z,100.00
2022-11-08T05:13:52.484Z,100.00
2022-11-08T05:16:30.367Z,100.00
2022-11-08T05:18:57.237Z,100.00
2022-11-08T05:21:43.515Z,100.00
2022-11-08T05:24:12.993Z,100.00
2022-11-08T05:26:42.864Z,100.00
2022-11-08T05:29:09.924Z,100.00
2022-11-08T05:31:36.480Z,100.00
2022-11-08T05:34:03.426Z,100.00
2022-11-08T05:36:30.199Z,100.00
2022-11-08T05:38:57.157Z,100.00
2022-11-08T05:41:25.256Z,100.00
2022-11-08T05:43:54.306Z,100.00
2022-11-08T05:46:22.658Z,100.00
2022-11-08T05:48:49.661Z,100.00
2022-11-08T05:51:18.342Z,100.00
2022-11-08T05:53:46.924Z,100.00
2022-11-08T05:56:13.410Z,100.00
2022-11-08T05:58:39.974Z,100.00
2022-11-08T06:01:14.666Z,100.00
2022-11-08T06:03:41.568Z,100.00
2022-11-08T06:06:11.742Z,100.00
2022-11-08T06:08:39.068Z,100.00
2022-11-08T06:11:07.659Z,100.00
2022-11-08T06:13:34.902Z,100.00
2022-11-08T06:16:03.064Z,100.00
2022-11-08T06:18:30.599Z,100.00
2022-11-08T06:21:02.431Z,100.00
2022-11-08T06:23:29.476Z,100.00
2022-11-08T06:25:56.147Z,100.00
2022-11-08T06:28:23.032Z,100.00
2022-11-08T06:30:50.081Z,100.00
2022-11-08T06:33:17.214Z,100.00
2022-11-08T06:35:43.975Z,100.00
2022-11-08T06:38:10.474Z,100.00
2022-11-08T06:40:38.280Z,100.00
2022-11-08T06:43:05.089Z,100.00
2022-11-08T06:45:32.293Z,100.00
2022-11-08T06:48:00.210Z,100.00
2022-11-08T06:50:27.858Z,100.00
2022-11-08T06:53:02.388Z,100.00
2022-11-08T06:55:29.907Z,100.00
2022-11-08T06:57:56.726Z,100.00
2022-11-08T07:00:24.054Z,100.00
2022-11-08T07:02:57.964Z,100.00
2022-11-08T07:05:25.953Z,100.00
2022-11-08T07:07:52.562Z,100.00
2022-11-08T07:10:21.206Z,100.00
2022-11-08T07:12:48.646Z,100.00
2022-11-08T07:15:15.577Z,100.00
2022-11-08T07:17:42.084Z,100.00
2022-11-08T07:20:09.542Z,100.00
2022-11-08T07:22:36.069Z,100.00
2022-11-08T07:25:02.667Z,100.00
2022-11-08T07:27:29.143Z,100.00
2022-11-08T07:29:55.692Z,100.00
2022-11-08T07:32:22.160Z,100.00
2022-11-08T07:34:48.689Z,100.00
2022-11-08T07:37:15.197Z,100.00
2022-11-08T07:39:41.718Z,100.00
2022-11-08T07:42:08.257Z,100.00
2022-11-08T07:44:34.718Z,100.00
2022-11-08T07:47:01.232Z,100.00
2022-11-08T07:49:27.717Z,100.00
2022-11-08T07:51:54.218Z,100.00
2022-11-08T07:54:20.684Z,100.00
2022-11-08T07:56:47.181Z,100.00
2022-11-08T07:59:13.693Z,100.00
2022-11-08T08:01:40.247Z,100.00
2022-11-08T08:04:06.833Z,100.00
2022-11-08T08:06:33.747Z,100.00
2022-11-08T08:09:01.065Z,100.00
2022-11-08T08:11:33.350Z,100.00
2022-11-08T08:14:00.265Z,100.00
2022-11-08T08:16:26.799Z,100.00
2022-11-08T08:18:56.435Z,100.00
2022-11-08T08:21:23.782Z,100.00
2022-11-08T08:23:50.344Z,100.00
2022-11-08T08:26:16.860Z,100.00
2022-11-08T08:28:43.367Z,100.00
2022-11-08T08:31:09.924Z,100.00
2022-11-08T08:33:37.873Z,100.00
2022-11-08T08:36:05.110Z,100.00
2022-11-08T08:38:33.423Z,100.00
2022-11-08T08:41:01.025Z,100.00
2022-11-08T08:43:28.993Z,100.00
2022-11-08T08:45:59.666Z,100.00
2022-11-08T08:48:26.156Z,100.00
2022-11-08T08:50:52.709Z,100.00
2022-11-08T08:53:19.602Z,100.00
2022-11-08T08:55:48.066Z,100.00
2022-11-08T08:58:14.789Z,100.00
2022-11-08T09:03:28.077Z,100.00
2022-11-08T09:05:57.448Z,100.00
2022-11-08T09:08:24.796Z,100.00
2022-11-08T09:10:55.863Z,100.00
2022-11-08T09:13:23.136Z,100.00
2022-11-08T09:15:49.728Z,100.00
2022-11-08T09:18:17.216Z,100.00
2022-11-08T09:20:47.478Z,100.00
2022-11-08T09:23:17.054Z,100.00
2022-11-08T09:25:43.767Z,100.00
2022-11-08T09:28:10.466Z,100.00
2022-11-08T09:30:36.956Z,100.00
2022-11-08T09:33:03.811Z,100.00
2022-11-08T09:35:30.615Z,100.00
2022-11-08T09:37:57.968Z,100.00
2022-11-08T09:40:33.211Z,100.00
2022-11-08T09:43:37.155Z,100.00
2022-11-08T09:46:03.743Z,100.00
2022-11-08T09:48:35.517Z,100.00
2022-11-08T09:51:24.067Z,100.00
2022-11-08T09:53:59.642Z,100.00
2022-11-08T09:56:35.571Z,100.00
2022-11-08T09:59:14.298Z,100.00
2022-11-08T10:01:41.030Z,100.00
2022-11-08T10:04:19.380Z,100.00
2022-11-08T10:07:19.768Z,100.00
2022-11-08T10:10:01.527Z,100.00
2022-11-08T10:12:55.132Z,100.00
2022-11-08T10:15:34.529Z,100.00
2022-11-08T10:18:10.476Z,100.00
2022-11-08T10:21:00.679Z,100.00
2022-11-08T10:23:55.430Z,100.00
2022-11-08T10:26:28.317Z,100.00
2022-11-08T10:29:22.161Z,100.00
2022-11-08T10:31:56.255Z,100.00
2022-11-08T10:34:27.128Z,100.00
2022-11-08T10:37:03.269Z,100.00
2022-11-08T10:39:37.208Z,100.00
2022-11-08T10:42:17.009Z,100.00
2022-11-08T10:44:44.197Z,100.00
2022-11-08T10:47:23.921Z,100.00
2022-11-08T10:49:50.661Z,100.00
2022-11-08T10:52:32.102Z,100.00
2022-11-08T10:54:59.855Z,100.00
2022-11-08T10:57:38.845Z,100.00
2022-11-08T11:00:20.626Z,100.00
2022-11-08T11:02:58.967Z,100.00
2022-11-08T11:05:57.678Z,100.00
2022-11-08T11:08:24.897Z,100.00
2022-11-08T11:10:51.834Z,100.00
2022-11-08T11:13:18.351Z,100.00
2022-11-08T11:15:57.376Z,100.00
2022-11-08T11:18:26.061Z,100.00
2022-11-08T11:21:17.880Z,100.00
2022-11-08T11:23:47.570Z,99.58
2022-11-08T11:26:45.771Z,99.31
2022-11-08T11:29:22.218Z,99.58
2022-11-08T11:31:51.603Z,99.16
2022-11-08T11:34:18.070Z,99.02
2022-11-08T11:36:50.990Z,98.08
2022-11-08T11:39:36.943Z,96.75
2022-11-08T11:42:44.374Z,97.04
2022-11-08T11:45:28.388Z,97.25
2022-11-08T11:48:03.537Z,97.11
2022-11-08T11:50:34.124Z,97.25
2022-11-08T11:53:04.976Z,96.29
2022-11-08T11:55:45.633Z,96.19
2022-11-08T11:58:30.436Z,96.31
2022-11-08T12:01:02.969Z,96.06
2022-11-08T12:03:47.771Z,96.07
2022-11-08T12:06:25.720Z,96.23
2022-11-08T12:09:01.437Z,95.37
2022-11-08T12:11:44.388Z,94.67
2022-11-08T12:14:43.271Z,94.07
2022-11-08T12:17:37.442Z,94.20
2022-11-08T12:20:11.344Z,93.40
2022-11-08T12:22:45.960Z,94.25
2022-11-08T12:25:18.641Z,94.45
2022-11-08T12:28:20.260Z,94.91
2022-11-08T12:31:08.042Z,94.34
2022-11-08T12:33:58.052Z,94.26
2022-11-08T12:36:46.216Z,94.00
2022-11-08T12:39:34.291Z,93.89
2022-11-08T12:42:14.559Z,93.95
2022-11-08T12:44:59.811Z,93.77
2022-11-08T12:47:46.155Z,93.93
2022-11-08T12:50:25.829Z,94.01
2022-11-08T12:52:52.308Z,93.20
2022-11-08T12:55:32.796Z,92.96
2022-11-08T12:58:06.028Z,93.13
2022-11-08T13:00:35.775Z,93.39
2022-11-08T13:03:30.771Z,92.77
2022-11-08T13:06:12.722Z,92.63
2022-11-08T13:09:05.714Z,93.33
2022-11-08T13:11:56.741Z,92.44
2022-11-08T13:14:24.284Z,92.13
2022-11-08T13:17:09.120Z,92.24
2022-11-08T13:19:47.734Z,92.37
2022-11-08T13:22:29.213Z,92.41
2022-11-08T13:24:56.829Z,92.10
2022-11-08T13:27:39.762Z,92.06
2022-11-08T13:30:12.033Z,91.43
2022-11-08T13:32:46.548Z,91.17
2022-11-08T13:35:28.262Z,90.81
2022-11-08T13:38:19.920Z,90.96
2022-11-08T13:41:11.884Z,90.60
2022-11-08T13:43:39.225Z,90.78
2022-11-08T13:46:25.877Z,90.30
2022-11-08T13:48:58.460Z,89.53
2022-11-08T13:51:32.591Z,90.11
2022-11-08T13:54:24.073Z,89.69
2022-11-08T13:56:52.906Z,89.29
2022-11-08T13:59:31.613Z,88.25
2022-11-08T14:02:01.013Z,88.38
2022-11-08T14:04:34.840Z,88.40
2022-11-08T14:07:10.221Z,89.06
2022-11-08T14:09:50.673Z,89.16
2022-11-08T14:12:53.922Z,89.23
2022-11-08T14:15:46.490Z,88.70
2022-11-08T14:18:39.133Z,89.30
2022-11-08T14:21:07.595Z,89.43
2022-11-08T14:23:36.527Z,88.97
2022-11-08T14:26:13.880Z,88.90
2022-11-08T14:28:43.414Z,88.88
2022-11-08T14:31:26.388Z,88.46
2022-11-08T14:33:54.249Z,88.70
2022-11-08T14:36:22.330Z,88.45
2022-11-08T14:39:04.165Z,88.21
2022-11-08T14:41:33.316Z,88.29
2022-11-08T14:44:01.813Z,88.36
2022-11-08T14:46:37.170Z,88.38
2022-11-08T14:49:10.572Z,88.77
2022-11-08T14:51:37.083Z,88.65
2022-11-08T14:54:03.682Z,88.63
2022-11-08T14:56:38.150Z,88.63
2022-11-08T14:59:06.989Z,88.50
2022-11-08T15:01:35.332Z,88.51
2022-11-08T15:04:13.607Z,88.18
2022-11-08T15:06:45.732Z,88.07
2022-11-08T15:09:20.673Z,87.76
2022-11-08T15:11:54.431Z,87.42
2022-11-08T15:14:24.060Z,87.42
2022-11-08T15:16:54.597Z,87.60
2022-11-08T15:19:29.969Z,87.38
2022-11-08T15:21:58.410Z,87.44
2022-11-08T15:24:35.735Z,87.37
2022-11-08T15:27:15.737Z,87.03
2022-11-08T15:30:03.091Z,87.90
2022-11-08T15:32:37.333Z,87.15
2022-11-08T15:35:05.246Z,86.63
2022-11-08T15:37:37.786Z,86.76
2022-11-08T15:40:28.380Z,86.44
2022-11-08T15:42:54.898Z,86.01
2022-11-08T15:45:32.281Z,86.42
2022-11-08T15:48:08.244Z,86.31
2022-11-08T15:50:34.944Z,85.71
2022-11-08T15:53:04.217Z,85.61
2022-11-08T15:55:39.823Z,85.86
2022-11-08T15:58:16.305Z,85.78
2022-11-08T16:00:48.065Z,85.78
2022-11-08T16:03:14.846Z,85.55
2022-11-08T16:05:41.539Z,85.44
2022-11-08T16:08:08.080Z,85.91
2022-11-08T16:10:37.209Z,85.54
2022-11-08T16:13:05.088Z,85.54
2022-11-08T16:15:34.258Z,85.67
2022-11-08T16:18:02.525Z,85.18
2022-11-08T16:20:36.753Z,85.33
2022-11-08T16:23:06.178Z,85.57
2022-11-08T16:25:41.665Z,85.21
2022-11-08T16:28:19.798Z,84.97
2022-11-08T16:30:47.712Z,84.95
2022-11-08T16:33:25.302Z,85.10
2022-11-08T16:35:55.139Z,85.02
2022-11-08T16:38:28.817Z,84.91
2022-11-08T16:40:55.877Z,84.62
2022-11-08T16:43:22.435Z,84.28
2022-11-08T16:46:06.351Z,84.80
2022-11-08T16:48:35.990Z,84.83
2022-11-08T16:51:04.940Z,84.99
2022-11-08T16:53:32.425Z,85.04
2022-11-08T16:55:59.304Z,85.41
2022-11-08T16:58:27.955Z,85.48
2022-11-08T17:00:55.831Z,85.31
2022-11-08T17:03:25.081Z,85.73
2022-11-08T17:05:53.826Z,86.17
2022-11-08T17:08:20.814Z,86.30
2022-11-08T17:10:47.898Z,86.50
2022-11-08T17:13:15.866Z,86.63
2022-11-08T17:15:42.516Z,86.81
2022-11-08T17:18:14.507Z,86.94
2022-11-08T17:20:41.500Z,87.06
2022-11-08T17:23:09.124Z,86.88
2022-11-08T17:25:37.950Z,86.98
2022-11-08T17:28:04.717Z,87.06
2022-11-08T17:30:31.326Z,86.58
2022-11-08T17:32:58.291Z,87.23
2022-11-08T17:35:24.809Z,87.14
2022-11-08T17:37:53.339Z,87.44
2022-11-08T17:40:20.223Z,87.47
2022-11-08T17:42:46.722Z,87.53
2022-11-08T17:45:13.718Z,87.67
2022-11-08T17:47:42.306Z,87.52
2022-11-08T17:50:10.054Z,87.42
2022-11-08T17:52:36.800Z,87.52
2022-11-08T17:55:03.962Z,87.48
2022-11-08T17:57:30.485Z,87.40
2022-11-08T17:59:57.180Z,87.03
2022-11-08T18:02:23.794Z,87.33
2022-11-08T18:04:50.378Z,87.31
2022-11-08T18:07:16.906Z,87.39
2022-11-08T18:09:43.467Z,87.38
2022-11-08T18:12:09.983Z,87.76
2022-11-08T18:14:36.516Z,87.88
2022-11-08T18:17:05.094Z,87.99
2022-11-08T18:19:31.736Z,87.97
2022-11-08T18:22:00.238Z,87.86
2022-11-08T18:24:26.798Z,87.89
2022-11-08T18:26:53.722Z,87.89
2022-11-08T18:29:20.430Z,87.78
2022-11-08T18:31:46.924Z,88.01
2022-11-08T18:34:13.483Z,87.90
2022-11-08T18:36:40.019Z,88.05
2022-11-08T18:39:06.499Z,88.10
2022-11-08T18:41:33.912Z,88.29
2022-11-08T18:44:01.439Z,88.50
2022-11-08T18:46:32.978Z,88.34
2022-11-08T18:48:59.796Z,88.46
2022-11-08T18:51:26.563Z,88.46
2022-11-08T18:53:53.527Z,88.55
2022-11-08T18:56:21.042Z,88.78
2022-11-08T18:58:47.600Z,88.61
2022-11-08T19:01:14.888Z,88.68
2022-11-08T19:03:41.807Z,88.53
2022-11-08T19:06:08.575Z,88.26
2022-11-08T19:08:36.769Z,88.35
2022-11-08T19:11:07.938Z,88.11
2022-11-08T19:13:36.952Z,88.18
2022-11-08T19:16:15.616Z,88.43
2022-11-08T19:18:42.960Z,88.57
2022-11-08T19:21:15.019Z,88.75
2022-11-08T19:23:42.400Z,88.69
2022-11-08T19:26:29.456Z,88.59
2022-11-08T19:28:57.644Z,88.85
2022-11-08T19:31:25.740Z,88.55
2022-11-08T19:33:54.002Z,88.39
2022-11-08T19:36:27.085Z,88.57
2022-11-08T19:38:54.929Z,88.29
2022-11-08T19:41:23.828Z,88.28
2022-11-08T19:43:50.659Z,88.50
2022-11-08T19:46:20.314Z,88.51
2022-11-08T19:48:49.303Z,88.54
2022-11-08T19:51:20.900Z,88.58
2022-11-08T19:53:47.815Z,88.79
2022-11-08T19:56:17.097Z,88.75
2022-11-08T19:58:44.348Z,89.17
2022-11-08T20:01:15.022Z,89.05
2022-11-08T20:03:42.139Z,89.42
2022-11-08T20:06:09.841Z,89.60
2022-11-08T20:08:37.145Z,89.64
2022-11-08T20:11:21.225Z,90.05
2022-11-08T20:13:47.823Z,90.05
2022-11-08T20:16:14.298Z,90.28
2022-11-08T20:18:41.095Z,90.46
2022-11-08T20:21:09.150Z,90.61
2022-11-08T20:23:36.629Z,90.67
2022-11-08T20:26:07.975Z,90.66
2022-11-08T20:28:36.335Z,90.93
2022-11-08T20:31:10.870Z,91.37
2022-11-08T20:33:40.333Z,91.64
2022-11-08T20:36:10.786Z,91.78
2022-11-08T20:38:37.848Z,91.70
2022-11-08T20:41:06.163Z,91.82
2022-11-08T20:43:33.033Z,91.64
2022-11-08T20:46:07.749Z,91.84
2022-11-08T20:48:34.645Z,92.19
2022-11-08T20:51:02.780Z,92.51
2022-11-08T20:53:32.199Z,92.54
2022-11-08T20:56:03.841Z,92.88
2022-11-08T20:58:32.410Z,93.01
2022-11-08T21:01:00.333Z,93.08
2022-11-08T21:03:28.326Z,93.28
2022-11-08T21:06:00.738Z,93.38
2022-11-08T21:11:15.294Z,93.67
2022-11-08T21:13:43.681Z,93.68
2022-11-08T21:16:29.440Z,93.71
2022-11-08T21:18:57.613Z,93.86
2022-11-08T21:21:25.094Z,93.97
2022-11-08T21:23:51.784Z,94.12
2022-11-08T21:26:19.299Z,94.07
2022-11-08T21:28:46.438Z,94.45
2022-11-08T21:31:13.769Z,94.28
2022-11-08T21:33:40.550Z,94.31
2022-11-08T21:36:08.791Z,94.38
2022-11-08T21:38:37.378Z,94.71
2022-11-08T21:41:05.934Z,94.59
2022-11-08T21:43:43.375Z,94.91
2022-11-08T21:46:18.853Z,94.51
2022-11-08T21:48:46.081Z,94.76
2022-11-08T21:51:13.196Z,95.04
2022-11-08T21:53:48.143Z,94.70
2022-11-08T21:56:21.015Z,94.78
2022-11-08T21:58:47.531Z,94.76
2022-11-08T22:01:14.162Z,94.94
2022-11-08T22:03:40.691Z,94.80
2022-11-08T22:06:07.426Z,95.11
2022-11-08T22:08:33.957Z,95.34
2022-11-08T22:11:00.498Z,95.38
2022-11-08T22:13:27.892Z,95.19
2022-11-08T22:15:54.669Z,95.31
2022-11-08T22:18:36.379Z,95.45
2022-11-08T22:21:26.342Z,95.64
2022-11-08T22:23:52.884Z,95.89
2022-11-08T22:26:19.425Z,96.18
2022-11-08T22:28:45.961Z,96.10
2022-11-08T22:31:12.527Z,96.29
2022-11-08T22:33:39.096Z,96.52
2022-11-08T22:36:05.922Z,96.59
2022-11-08T22:38:32.410Z,96.71
2022-11-08T22:40:59.313Z,96.80
2022-11-08T22:43:25.869Z,97.08
2022-11-08T22:45:52.400Z,97.28
2022-11-08T22:48:19.329Z,97.45
2022-11-08T22:51:08.093Z,97.63
2022-11-08T22:53:35.405Z,97.72
2022-11-08T22:56:10.704Z,97.82
2022-11-08T22:58:38.604Z,98.22
2022-11-08T23:01:05.811Z,98.18
2022-11-08T23:03:32.326Z,98.34
2022-11-08T23:05:58.962Z,98.51
2022-11-08T23:08:26.933Z,98.54
2022-11-08T23:11:12.873Z,98.34
2022-11-08T23:13:58.540Z,98.62
2022-11-08T23:16:38.041Z,98.71
2022-11-08T23:19:38.596Z,98.84
2022-11-08T23:22:25.799Z,99.09
2022-11-08T23:24:52.318Z,99.36
2022-11-08T23:27:38.714Z,99.43
2022-11-08T23:30:24.839Z,99.47
2022-11-08T23:32:51.810Z,99.74
2022-11-08T23:35:20.414Z,99.76
2022-11-08T23:37:47.378Z,99.93
2022-11-08T23:40:34.952Z,100.00
2022-11-08T23:43:31.354Z,100.00
2022-11-08T23:46:03.644Z,100.00
2022-11-08T23:48:30.123Z,100.00
2022-11-08T23:50:56.710Z,100.00
2022-11-08T23:53:27.398Z,100.00
2022-11-08T23:55:54.713Z,100.00
2022-11-08T23:58:22.165Z,100.00
